sensor_id;sensor_type;location;lat;lon;timestamp;temperature;humidity
68011;DHT22;54794;48.348;7.878;2022-08-05T00:01:30;28.20;39.90
68011;DHT22;54794;48.348;7.878;2022-08-05T00:04:13;28.10;40.40
68011;DHT22;54794;48.348;7.878;2022-08-05T00:06:42;28.20;39.80
68011;DHT22;54794;48.348;7.878;2022-08-05T00:09:09;28.10;40.00
68011;DHT22;54794;48.348;7.878;2022-08-05T00:11:40;28.10;40.00
68011;DHT22;54794;48.348;7.878;2022-08-05T00:14:15;28.10;40.20
68011;DHT22;54794;48.348;7.878;2022-08-05T00:16:44;28.10;40.00
68011;DHT22;54794;48.348;7.878;2022-08-05T00:19:21;28.00;40.30
68011;DHT22;54794;48.348;7.878;2022-08-05T00:21:50;28.00;40.40
68011;DHT22;54794;48.348;7.878;2022-08-05T00:24:19;28.00;40.80
68011;DHT22;54794;48.348;7.878;2022-08-05T00:26:51;27.90;40.40
68011;DHT22;54794;48.348;7.878;2022-08-05T00:29:19;27.90;40.60
68011;DHT22;54794;48.348;7.878;2022-08-05T00:31:51;27.90;40.80
68011;DHT22;54794;48.348;7.878;2022-08-05T00:34:40;27.90;40.90
68011;DHT22;54794;48.348;7.878;2022-08-05T00:37:29;27.90;40.70
68011;DHT22;54794;48.348;7.878;2022-08-05T00:40:17;27.80;40.80
68011;DHT22;54794;48.348;7.878;2022-08-05T00:42:55;27.70;40.90
68011;DHT22;54794;48.348;7.878;2022-08-05T00:45:24;27.70;41.00
68011;DHT22;54794;48.348;7.878;2022-08-05T00:48:09;27.60;41.10
68011;DHT22;54794;48.348;7.878;2022-08-05T00:50:39;27.60;41.40
68011;DHT22;54794;48.348;7.878;2022-08-05T00:53:12;27.50;41.40
68011;DHT22;54794;48.348;7.878;2022-08-05T00:56:01;27.50;41.40
68011;DHT22;54794;48.348;7.878;2022-08-05T00:58:28;27.50;41.50
68011;DHT22;54794;48.348;7.878;2022-08-05T01:00:55;27.40;41.50
68011;DHT22;54794;48.348;7.878;2022-08-05T01:03:22;27.40;41.60
68011;DHT22;54794;48.348;7.878;2022-08-05T01:06:00;27.40;41.20
68011;DHT22;54794;48.348;7.878;2022-08-05T01:08:29;27.40;41.50
68011;DHT22;54794;48.348;7.878;2022-08-05T01:14:10;27.30;42.10
68011;DHT22;54794;48.348;7.878;2022-08-05T01:16:59;27.30;42.60
68011;DHT22;54794;48.348;7.878;2022-08-05T01:29:00;27.10;42.20
68011;DHT22;54794;48.348;7.878;2022-08-05T01:31:42;27.10;42.80
68011;DHT22;54794;48.348;7.878;2022-08-05T01:34:40;27.00;43.20
68011;DHT22;54794;48.348;7.878;2022-08-05T01:40:14;27.00;42.90
68011;DHT22;54794;48.348;7.878;2022-08-05T01:42:45;27.00;43.00
68011;DHT22;54794;48.348;7.878;2022-08-05T01:45:15;26.90;43.00
68011;DHT22;54794;48.348;7.878;2022-08-05T01:47:48;26.90;43.10
68011;DHT22;54794;48.348;7.878;2022-08-05T01:50:25;26.90;43.20
68011;DHT22;54794;48.348;7.878;2022-08-05T01:52:59;26.90;43.40
68011;DHT22;54794;48.348;7.878;2022-08-05T01:55:30;26.80;43.60
68011;DHT22;54794;48.348;7.878;2022-08-05T01:58:05;26.80;43.70
68011;DHT22;54794;48.348;7.878;2022-08-05T02:00:44;26.80;43.80
68011;DHT22;54794;48.348;7.878;2022-08-05T02:03:36;26.80;43.70
68011;DHT22;54794;48.348;7.878;2022-08-05T02:06:07;26.80;44.80
68011;DHT22;54794;48.348;7.878;2022-08-05T02:08:55;26.80;43.70
68011;DHT22;54794;48.348;7.878;2022-08-05T02:11:26;26.70;43.80
68011;DHT22;54794;48.348;7.878;2022-08-05T02:14:25;26.70;44.00
68011;DHT22;54794;48.348;7.878;2022-08-05T02:17:04;26.60;43.80
68011;DHT22;54794;48.348;7.878;2022-08-05T02:19:59;26.60;43.80
68011;DHT22;54794;48.348;7.878;2022-08-05T02:22:34;26.70;44.20
68011;DHT22;54794;48.348;7.878;2022-08-05T02:25:21;26.70;44.30
68011;DHT22;54794;48.348;7.878;2022-08-05T02:28:15;26.70;44.80
68011;DHT22;54794;48.348;7.878;2022-08-05T02:31:01;26.70;44.20
68011;DHT22;54794;48.348;7.878;2022-08-05T02:33:43;26.70;44.30
68011;DHT22;54794;48.348;7.878;2022-08-05T02:36:24;26.70;44.50
68011;DHT22;54794;48.348;7.878;2022-08-05T02:38:54;26.70;44.50
68011;DHT22;54794;48.348;7.878;2022-08-05T02:41:24;26.60;44.50
68011;DHT22;54794;48.348;7.878;2022-08-05T02:44:06;26.60;44.70
68011;DHT22;54794;48.348;7.878;2022-08-05T02:46:40;26.60;44.80
68011;DHT22;54794;48.348;7.878;2022-08-05T02:49:30;26.60;44.60
68011;DHT22;54794;48.348;7.878;2022-08-05T02:52:16;26.60;44.80
68011;DHT22;54794;48.348;7.878;2022-08-05T02:54:57;26.50;45.00
68011;DHT22;54794;48.348;7.878;2022-08-05T02:57:31;26.60;44.90
68011;DHT22;54794;48.348;7.878;2022-08-05T03:00:20;26.50;44.90
68011;DHT22;54794;48.348;7.878;2022-08-05T03:02:47;26.50;45.00
68011;DHT22;54794;48.348;7.878;2022-08-05T03:05:16;26.50;45.10
68011;DHT22;54794;48.348;7.878;2022-08-05T03:08:05;26.40;45.10
68011;DHT22;54794;48.348;7.878;2022-08-05T03:10:34;26.40;45.10
68011;DHT22;54794;48.348;7.878;2022-08-05T03:13:02;26.40;45.30
68011;DHT22;54794;48.348;7.878;2022-08-05T03:15:43;26.40;45.30
68011;DHT22;54794;48.348;7.878;2022-08-05T03:18:12;26.40;45.40
68011;DHT22;54794;48.348;7.878;2022-08-05T03:20:42;26.30;45.40
68011;DHT22;54794;48.348;7.878;2022-08-05T03:23:14;26.30;45.40
68011;DHT22;54794;48.348;7.878;2022-08-05T03:25:42;26.30;45.60
68011;DHT22;54794;48.348;7.878;2022-08-05T03:28:30;26.30;45.70
68011;DHT22;54794;48.348;7.878;2022-08-05T03:30:59;26.20;45.60
68011;DHT22;54794;48.348;7.878;2022-08-05T03:33:27;26.20;45.80
68011;DHT22;54794;48.348;7.878;2022-08-05T03:36:14;26.20;45.90
68011;DHT22;54794;48.348;7.878;2022-08-05T03:38:56;26.20;45.90
68011;DHT22;54794;48.348;7.878;2022-08-05T03:41:23;26.20;45.90
68011;DHT22;54794;48.348;7.878;2022-08-05T03:43:50;26.20;45.40
68011;DHT22;54794;48.348;7.878;2022-08-05T03:46:37;26.10;46.10
68011;DHT22;54794;48.348;7.878;2022-08-05T03:49:04;26.10;45.70
68011;DHT22;54794;48.348;7.878;2022-08-05T03:51:35;26.00;45.80
68011;DHT22;54794;48.348;7.878;2022-08-05T03:54:36;26.00;46.20
68011;DHT22;54794;48.348;7.878;2022-08-05T03:57:30;26.00;46.60
68011;DHT22;54794;48.348;7.878;2022-08-05T04:00:11;26.00;46.10
68011;DHT22;54794;48.348;7.878;2022-08-05T04:02:47;26.00;46.10
68011;DHT22;54794;48.348;7.878;2022-08-05T04:05:28;26.00;47.00
68011;DHT22;54794;48.348;7.878;2022-08-05T04:08:05;26.00;46.60
68011;DHT22;54794;48.348;7.878;2022-08-05T04:10:47;26.00;46.80
68011;DHT22;54794;48.348;7.878;2022-08-05T04:13:15;26.10;46.50
68011;DHT22;54794;48.348;7.878;2022-08-05T04:15:45;26.10;46.70
68011;DHT22;54794;48.348;7.878;2022-08-05T04:18:30;26.20;46.90
68011;DHT22;54794;48.348;7.878;2022-08-05T04:21:00;26.20;46.80
68011;DHT22;54794;48.348;7.878;2022-08-05T04:23:30;26.30;46.90
68011;DHT22;54794;48.348;7.878;2022-08-05T04:26:18;26.30;46.90
68011;DHT22;54794;48.348;7.878;2022-08-05T04:28:45;26.40;46.60
68011;DHT22;54794;48.348;7.878;2022-08-05T04:31:18;26.40;46.70
68011;DHT22;54794;48.348;7.878;2022-08-05T04:33:45;26.50;46.80
68011;DHT22;54794;48.348;7.878;2022-08-05T04:36:32;26.50;47.00
68011;DHT22;54794;48.348;7.878;2022-08-05T04:39:14;26.50;47.00
68011;DHT22;54794;48.348;7.878;2022-08-05T04:41:42;26.60;47.20
68011;DHT22;54794;48.348;7.878;2022-08-05T04:44:11;26.60;47.20
68011;DHT22;54794;48.348;7.878;2022-08-05T04:46:38;26.60;47.20
68011;DHT22;54794;48.348;7.878;2022-08-05T04:49:06;26.70;47.30
68011;DHT22;54794;48.348;7.878;2022-08-05T04:51:41;26.80;47.50
68011;DHT22;54794;48.348;7.878;2022-08-05T04:54:09;26.80;47.30
68011;DHT22;54794;48.348;7.878;2022-08-05T04:56:37;26.90;47.30
68011;DHT22;54794;48.348;7.878;2022-08-05T04:59:05;26.90;47.30
68011;DHT22;54794;48.348;7.878;2022-08-05T05:01:48;27.00;47.50
68011;DHT22;54794;48.348;7.878;2022-08-05T05:04:35;27.00;47.30
68011;DHT22;54794;48.348;7.878;2022-08-05T05:07:03;27.10;47.50
68011;DHT22;54794;48.348;7.878;2022-08-05T05:09:35;27.10;47.60
68011;DHT22;54794;48.348;7.878;2022-08-05T05:12:04;27.20;47.70
68011;DHT22;54794;48.348;7.878;2022-08-05T05:14:33;27.20;47.50
68011;DHT22;54794;48.348;7.878;2022-08-05T05:17:01;27.20;47.50
68011;DHT22;54794;48.348;7.878;2022-08-05T05:19:32;27.30;47.70
68011;DHT22;54794;48.348;7.878;2022-08-05T05:22:12;27.30;47.60
68011;DHT22;54794;48.348;7.878;2022-08-05T05:24:50;27.40;47.50
68011;DHT22;54794;48.348;7.878;2022-08-05T05:27:28;27.40;47.60
68011;DHT22;54794;48.348;7.878;2022-08-05T05:30:13;27.40;47.50
68011;DHT22;54794;48.348;7.878;2022-08-05T05:32:54;27.50;47.70
68011;DHT22;54794;48.348;7.878;2022-08-05T05:35:21;27.50;47.80
68011;DHT22;54794;48.348;7.878;2022-08-05T05:37:53;27.60;47.60
68011;DHT22;54794;48.348;7.878;2022-08-05T05:40:26;27.60;47.90
68011;DHT22;54794;48.348;7.878;2022-08-05T05:42:55;27.60;47.80
68011;DHT22;54794;48.348;7.878;2022-08-05T05:45:23;27.60;47.80
68011;DHT22;54794;48.348;7.878;2022-08-05T05:47:50;27.60;47.90
68011;DHT22;54794;48.348;7.878;2022-08-05T05:50:34;27.70;47.90
68011;DHT22;54794;48.348;7.878;2022-08-05T05:53:10;27.70;48.00
68011;DHT22;54794;48.348;7.878;2022-08-05T05:55:48;27.70;48.10
68011;DHT22;54794;48.348;7.878;2022-08-05T05:58:27;27.80;47.80
68011;DHT22;54794;48.348;7.878;2022-08-05T06:01:00;27.80;47.80
68011;DHT22;54794;48.348;7.878;2022-08-05T06:03:41;27.80;47.70
68011;DHT22;54794;48.348;7.878;2022-08-05T06:06:28;27.80;47.70
68011;DHT22;54794;48.348;7.878;2022-08-05T06:08:59;27.80;47.50
68011;DHT22;54794;48.348;7.878;2022-08-05T06:11:26;27.80;47.40
68011;DHT22;54794;48.348;7.878;2022-08-05T06:13:55;27.90;47.40
68011;DHT22;54794;48.348;7.878;2022-08-05T06:16:22;27.90;47.30
68011;DHT22;54794;48.348;7.878;2022-08-05T06:18:58;27.90;47.20
68011;DHT22;54794;48.348;7.878;2022-08-05T06:21:31;27.90;47.30
68011;DHT22;54794;48.348;7.878;2022-08-05T06:24:06;27.90;47.40
68011;DHT22;54794;48.348;7.878;2022-08-05T06:26:41;27.90;47.60
68011;DHT22;54794;48.348;7.878;2022-08-05T06:29:19;27.90;47.60
68011;DHT22;54794;48.348;7.878;2022-08-05T06:32:07;28.00;48.00
68011;DHT22;54794;48.348;7.878;2022-08-05T06:34:53;28.00;47.90
68011;DHT22;54794;48.348;7.878;2022-08-05T06:37:26;28.10;47.90
68011;DHT22;54794;48.348;7.878;2022-08-05T06:40:14;28.10;47.80
68011;DHT22;54794;48.348;7.878;2022-08-05T06:42:46;28.20;48.10
68011;DHT22;54794;48.348;7.878;2022-08-05T06:45:19;28.30;48.00
68011;DHT22;54794;48.348;7.878;2022-08-05T06:48:07;28.40;48.10
68011;DHT22;54794;48.348;7.878;2022-08-05T06:50:55;28.40;47.90
68011;DHT22;54794;48.348;7.878;2022-08-05T06:53:22;28.50;47.80
68011;DHT22;54794;48.348;7.878;2022-08-05T06:55:55;28.60;47.80
68011;DHT22;54794;48.348;7.878;2022-08-05T06:58:26;28.60;47.60
68011;DHT22;54794;48.348;7.878;2022-08-05T07:01:00;28.60;47.40
68011;DHT22;54794;48.348;7.878;2022-08-05T07:03:28;28.60;47.30
68011;DHT22;54794;48.348;7.878;2022-08-05T07:05:59;28.60;47.30
68011;DHT22;54794;48.348;7.878;2022-08-05T07:08:43;28.60;47.30
68011;DHT22;54794;48.348;7.878;2022-08-05T07:11:17;28.70;47.60
68011;DHT22;54794;48.348;7.878;2022-08-05T07:13:51;28.70;47.60
68011;DHT22;54794;48.348;7.878;2022-08-05T07:16:47;28.70;47.80
68011;DHT22;54794;48.348;7.878;2022-08-05T07:19:38;28.70;47.50
68011;DHT22;54794;48.348;7.878;2022-08-05T07:22:26;28.90;47.50
68011;DHT22;54794;48.348;7.878;2022-08-05T07:25:00;28.90;47.30
68011;DHT22;54794;48.348;7.878;2022-08-05T07:27:49;28.90;47.60
68011;DHT22;54794;48.348;7.878;2022-08-05T07:30:29;28.90;47.50
68011;DHT22;54794;48.348;7.878;2022-08-05T07:33:04;28.90;47.40
68011;DHT22;54794;48.348;7.878;2022-08-05T07:35:36;29.00;47.60
68011;DHT22;54794;48.348;7.878;2022-08-05T07:38:24;29.00;47.70
68011;DHT22;54794;48.348;7.878;2022-08-05T07:41:15;29.10;47.80
68011;DHT22;54794;48.348;7.878;2022-08-05T07:44:05;29.20;47.80
68011;DHT22;54794;48.348;7.878;2022-08-05T07:46:45;29.30;47.50
68011;DHT22;54794;48.348;7.878;2022-08-05T07:49:15;29.40;47.40
68011;DHT22;54794;48.348;7.878;2022-08-05T07:51:44;29.40;47.10
68011;DHT22;54794;48.348;7.878;2022-08-05T07:54:24;29.60;46.70
68011;DHT22;54794;48.348;7.878;2022-08-05T07:57:02;29.60;46.50
68011;DHT22;54794;48.348;7.878;2022-08-05T07:59:50;29.70;46.40
68011;DHT22;54794;48.348;7.878;2022-08-05T08:02:23;29.80;46.20
68011;DHT22;54794;48.348;7.878;2022-08-05T08:05:14;29.90;45.60
68011;DHT22;54794;48.348;7.878;2022-08-05T08:07:43;30.00;45.80
68011;DHT22;54794;48.348;7.878;2022-08-05T08:10:24;30.10;45.50
68011;DHT22;54794;48.348;7.878;2022-08-05T08:12:52;30.20;45.30
68011;DHT22;54794;48.348;7.878;2022-08-05T08:15:19;30.20;45.20
68011;DHT22;54794;48.348;7.878;2022-08-05T08:18:06;30.30;45.10
68011;DHT22;54794;48.348;7.878;2022-08-05T08:20:40;30.40;44.80
68011;DHT22;54794;48.348;7.878;2022-08-05T08:23:27;30.50;44.90
68011;DHT22;54794;48.348;7.878;2022-08-05T08:26:14;30.60;44.90
68011;DHT22;54794;48.348;7.878;2022-08-05T08:28:41;30.70;44.40
68011;DHT22;54794;48.348;7.878;2022-08-05T08:31:28;30.80;44.40
68011;DHT22;54794;48.348;7.878;2022-08-05T08:33:58;30.90;44.30
68011;DHT22;54794;48.348;7.878;2022-08-05T08:36:25;31.10;44.40
68011;DHT22;54794;48.348;7.878;2022-08-05T08:39:06;31.20;45.10
68011;DHT22;54794;48.348;7.878;2022-08-05T08:41:42;31.30;44.30
68011;DHT22;54794;48.348;7.878;2022-08-05T08:44:27;31.50;44.30
68011;DHT22;54794;48.348;7.878;2022-08-05T08:47:18;31.60;43.90
68011;DHT22;54794;48.348;7.878;2022-08-05T08:50:10;31.70;43.30
68011;DHT22;54794;48.348;7.878;2022-08-05T08:53:05;31.90;43.10
68011;DHT22;54794;48.348;7.878;2022-08-05T08:55:34;31.90;42.50
68011;DHT22;54794;48.348;7.878;2022-08-05T08:58:22;32.10;42.80
68011;DHT22;54794;48.348;7.878;2022-08-05T09:01:10;32.10;42.30
68011;DHT22;54794;48.348;7.878;2022-08-05T09:03:51;32.20;42.50
68011;DHT22;54794;48.348;7.878;2022-08-05T09:06:28;32.40;42.00
68011;DHT22;54794;48.348;7.878;2022-08-05T09:08:58;32.50;42.40
68011;DHT22;54794;48.348;7.878;2022-08-05T09:11:27;32.60;42.40
68011;DHT22;54794;48.348;7.878;2022-08-05T09:14:15;32.70;42.00
68011;DHT22;54794;48.348;7.878;2022-08-05T09:17:07;32.80;41.80
68011;DHT22;54794;48.348;7.878;2022-08-05T09:19:58;32.90;41.20
68011;DHT22;54794;48.348;7.878;2022-08-05T09:25:50;33.10;41.00
68011;DHT22;54794;48.348;7.878;2022-08-05T09:28:30;33.20;41.00
68011;DHT22;54794;48.348;7.878;2022-08-05T09:31:11;33.40;41.10
68011;DHT22;54794;48.348;7.878;2022-08-05T09:34:05;33.40;40.30
68011;DHT22;54794;48.348;7.878;2022-08-05T09:36:49;33.60;40.70
68011;DHT22;54794;48.348;7.878;2022-08-05T09:39:25;33.70;40.30
68011;DHT22;54794;48.348;7.878;2022-08-05T09:42:13;33.70;40.30
68011;DHT22;54794;48.348;7.878;2022-08-05T09:44:54;33.80;40.20
68011;DHT22;54794;48.348;7.878;2022-08-05T09:47:41;33.90;40.30
68011;DHT22;54794;48.348;7.878;2022-08-05T09:50:36;34.00;41.30
68011;DHT22;54794;48.348;7.878;2022-08-05T09:53:10;34.10;40.00
68011;DHT22;54794;48.348;7.878;2022-08-05T09:55:59;34.20;39.80
68011;DHT22;54794;48.348;7.878;2022-08-05T09:58:30;34.20;39.80
68011;DHT22;54794;48.348;7.878;2022-08-05T10:01:01;34.30;39.90
68011;DHT22;54794;48.348;7.878;2022-08-05T10:03:54;34.40;40.80
68011;DHT22;54794;48.348;7.878;2022-08-05T10:06:26;34.50;39.50
68011;DHT22;54794;48.348;7.878;2022-08-05T10:08:55;34.50;39.50
68011;DHT22;54794;48.348;7.878;2022-08-05T10:11:52;34.60;39.40
68011;DHT22;54794;48.348;7.878;2022-08-05T10:14:25;34.70;39.20
68011;DHT22;54794;48.348;7.878;2022-08-05T10:16:57;34.70;38.60
68011;DHT22;54794;48.348;7.878;2022-08-05T10:19:58;34.70;38.60
68011;DHT22;54794;48.348;7.878;2022-08-05T10:22:35;34.70;38.20
68011;DHT22;54794;48.348;7.878;2022-08-05T10:25:08;34.70;38.80
68011;DHT22;54794;48.348;7.878;2022-08-05T10:27:40;34.70;38.50
68011;DHT22;54794;48.348;7.878;2022-08-05T10:30:27;34.80;38.40
68011;DHT22;54794;48.348;7.878;2022-08-05T10:33:14;34.80;38.30
68011;DHT22;54794;48.348;7.878;2022-08-05T10:35:43;34.80;38.30
68011;DHT22;54794;48.348;7.878;2022-08-05T10:38:27;34.90;38.20
68011;DHT22;54794;48.348;7.878;2022-08-05T10:41:15;34.90;38.10
68011;DHT22;54794;48.348;7.878;2022-08-05T10:44:05;34.90;37.90
68011;DHT22;54794;48.348;7.878;2022-08-05T10:49:21;35.00;37.60
68011;DHT22;54794;48.348;7.878;2022-08-05T10:51:55;35.10;37.90
68011;DHT22;54794;48.348;7.878;2022-08-05T10:54:46;35.10;37.90
68011;DHT22;54794;48.348;7.878;2022-08-05T10:57:27;35.10;37.50
68011;DHT22;54794;48.348;7.878;2022-08-05T11:00:18;35.20;37.60
68011;DHT22;54794;48.348;7.878;2022-08-05T11:08:34;35.40;37.20
68011;DHT22;54794;48.348;7.878;2022-08-05T11:11:33;35.40;37.50
68011;DHT22;54794;48.348;7.878;2022-08-05T11:14:11;35.50;37.30
68011;DHT22;54794;48.348;7.878;2022-08-05T11:16:39;35.50;37.00
68011;DHT22;54794;48.348;7.878;2022-08-05T11:19:27;35.60;37.00
68011;DHT22;54794;48.348;7.878;2022-08-05T11:22:41;35.60;36.70
68011;DHT22;54794;48.348;7.878;2022-08-05T11:25:38;35.70;37.00
68011;DHT22;54794;48.348;7.878;2022-08-05T11:33:35;35.90;37.10
68011;DHT22;54794;48.348;7.878;2022-08-05T11:36:20;35.90;36.80
68011;DHT22;54794;48.348;7.878;2022-08-05T11:39:16;36.00;37.50
68011;DHT22;54794;48.348;7.878;2022-08-05T11:42:31;36.10;36.70
68011;DHT22;54794;48.348;7.878;2022-08-05T11:45:06;36.20;36.50
68011;DHT22;54794;48.348;7.878;2022-08-05T11:47:49;36.20;36.40
68011;DHT22;54794;48.348;7.878;2022-08-05T11:50:21;36.30;36.40
68011;DHT22;54794;48.348;7.878;2022-08-05T11:52:48;36.30;36.00
68011;DHT22;54794;48.348;7.878;2022-08-05T11:55:18;36.40;36.10
68011;DHT22;54794;48.348;7.878;2022-08-05T11:57:46;36.40;35.70
68011;DHT22;54794;48.348;7.878;2022-08-05T12:00:33;36.50;35.90
68011;DHT22;54794;48.348;7.878;2022-08-05T12:03:20;36.50;35.80
68011;DHT22;54794;48.348;7.878;2022-08-05T12:06:01;36.60;35.60
68011;DHT22;54794;48.348;7.878;2022-08-05T12:08:56;36.70;35.90
68011;DHT22;54794;48.348;7.878;2022-08-05T12:11:26;36.80;35.90
68011;DHT22;54794;48.348;7.878;2022-08-05T12:14:08;37.00;35.80
68011;DHT22;54794;48.348;7.878;2022-08-05T12:16:38;37.10;35.50
68011;DHT22;54794;48.348;7.878;2022-08-05T12:19:12;37.20;35.50
68011;DHT22;54794;48.348;7.878;2022-08-05T12:22:00;37.20;35.40
68011;DHT22;54794;48.348;7.878;2022-08-05T12:24:27;37.30;35.30
68011;DHT22;54794;48.348;7.878;2022-08-05T12:26:56;37.30;35.10
68011;DHT22;54794;48.348;7.878;2022-08-05T12:29:26;37.30;35.20
68011;DHT22;54794;48.348;7.878;2022-08-05T12:32:05;37.40;34.40
68011;DHT22;54794;48.348;7.878;2022-08-05T12:34:36;37.40;34.70
68011;DHT22;54794;48.348;7.878;2022-08-05T12:37:09;37.50;34.90
68011;DHT22;54794;48.348;7.878;2022-08-05T12:39:57;37.60;34.80
68011;DHT22;54794;48.348;7.878;2022-08-05T12:42:37;37.70;34.80
68011;DHT22;54794;48.348;7.878;2022-08-05T12:45:07;37.80;34.90
68011;DHT22;54794;48.348;7.878;2022-08-05T12:47:36;37.90;34.20
68011;DHT22;54794;48.348;7.878;2022-08-05T12:50:16;37.90;34.40
68011;DHT22;54794;48.348;7.878;2022-08-05T12:52:56;38.00;34.90
68011;DHT22;54794;48.348;7.878;2022-08-05T12:55:28;38.10;33.80
68011;DHT22;54794;48.348;7.878;2022-08-05T12:58:00;38.10;34.00
68011;DHT22;54794;48.348;7.878;2022-08-05T13:00:47;38.10;33.60
68011;DHT22;54794;48.348;7.878;2022-08-05T13:03:37;38.00;33.50
68011;DHT22;54794;48.348;7.878;2022-08-05T13:06:15;38.00;33.60
68011;DHT22;54794;48.348;7.878;2022-08-05T13:08:45;37.90;33.50
68011;DHT22;54794;48.348;7.878;2022-08-05T13:11:19;37.80;33.50
68011;DHT22;54794;48.348;7.878;2022-08-05T13:14:21;37.70;33.30
68011;DHT22;54794;48.348;7.878;2022-08-05T13:17:15;37.60;33.20
68011;DHT22;54794;48.348;7.878;2022-08-05T13:20:07;37.50;33.40
68011;DHT22;54794;48.348;7.878;2022-08-05T13:22:41;37.50;33.70
68011;DHT22;54794;48.348;7.878;2022-08-05T13:25:11;37.50;33.90
68011;DHT22;54794;48.348;7.878;2022-08-05T13:27:52;37.50;33.70
68011;DHT22;54794;48.348;7.878;2022-08-05T13:30:22;37.60;33.60
68011;DHT22;54794;48.348;7.878;2022-08-05T13:33:04;37.60;33.80
68011;DHT22;54794;48.348;7.878;2022-08-05T13:35:31;37.60;33.90
68011;DHT22;54794;48.348;7.878;2022-08-05T13:38:18;37.60;33.90
68011;DHT22;54794;48.348;7.878;2022-08-05T13:40:59;37.60;34.00
68011;DHT22;54794;48.348;7.878;2022-08-05T13:43:26;37.60;33.90
68011;DHT22;54794;48.348;7.878;2022-08-05T13:46:14;37.60;33.80
68011;DHT22;54794;48.348;7.878;2022-08-05T13:49:02;37.50;33.70
68011;DHT22;54794;48.348;7.878;2022-08-05T13:51:32;37.40;33.70
68011;DHT22;54794;48.348;7.878;2022-08-05T13:54:07;37.30;33.70
68011;DHT22;54794;48.348;7.878;2022-08-05T13:56:40;37.20;33.80
68011;DHT22;54794;48.348;7.878;2022-08-05T13:59:21;37.10;34.00
68011;DHT22;54794;48.348;7.878;2022-08-05T14:01:53;37.00;34.10
68011;DHT22;54794;48.348;7.878;2022-08-05T14:04:24;37.00;34.40
68011;DHT22;54794;48.348;7.878;2022-08-05T14:07:21;36.90;34.40
68011;DHT22;54794;48.348;7.878;2022-08-05T14:10:12;36.80;34.40
68011;DHT22;54794;48.348;7.878;2022-08-05T14:12:54;36.70;34.30
68011;DHT22;54794;48.348;7.878;2022-08-05T14:15:23;36.70;34.30
68011;DHT22;54794;48.348;7.878;2022-08-05T14:18:10;36.50;34.30
68011;DHT22;54794;48.348;7.878;2022-08-05T14:20:45;36.40;34.40
68011;DHT22;54794;48.348;7.878;2022-08-05T14:23:14;36.30;34.60
68011;DHT22;54794;48.348;7.878;2022-08-05T14:25:55;36.10;34.70
68011;DHT22;54794;48.348;7.878;2022-08-05T14:28:28;36.00;35.10
68011;DHT22;54794;48.348;7.878;2022-08-05T14:30:56;35.80;35.10
68011;DHT22;54794;48.348;7.878;2022-08-05T14:33:26;35.70;35.30
68011;DHT22;54794;48.348;7.878;2022-08-05T14:36:13;35.50;35.20
68011;DHT22;54794;48.348;7.878;2022-08-05T14:38:40;35.40;35.30
68011;DHT22;54794;48.348;7.878;2022-08-05T14:41:07;35.30;35.50
68011;DHT22;54794;48.348;7.878;2022-08-05T14:43:36;35.30;35.20
68011;DHT22;54794;48.348;7.878;2022-08-05T14:46:25;35.20;35.60
68011;DHT22;54794;48.348;7.878;2022-08-05T14:48:56;35.10;35.80
68011;DHT22;54794;48.348;7.878;2022-08-05T14:51:37;35.00;36.10
68011;DHT22;54794;48.348;7.878;2022-08-05T14:54:09;34.90;36.30
68011;DHT22;54794;48.348;7.878;2022-08-05T14:56:56;34.80;36.30
68011;DHT22;54794;48.348;7.878;2022-08-05T14:59:24;34.80;36.60
68011;DHT22;54794;48.348;7.878;2022-08-05T15:01:55;34.80;36.80
68011;DHT22;54794;48.348;7.878;2022-08-05T15:04:23;34.70;36.80
68011;DHT22;54794;48.348;7.878;2022-08-05T15:06:54;34.70;36.80
68011;DHT22;54794;48.348;7.878;2022-08-05T15:09:21;34.70;36.90
68011;DHT22;54794;48.348;7.878;2022-08-05T15:12:09;34.60;36.90
68011;DHT22;54794;48.348;7.878;2022-08-05T15:14:43;34.60;37.00
68011;DHT22;54794;48.348;7.878;2022-08-05T15:17:19;34.50;37.00
68011;DHT22;54794;48.348;7.878;2022-08-05T15:20:10;34.50;37.20
68011;DHT22;54794;48.348;7.878;2022-08-05T15:22:46;34.40;37.20
68011;DHT22;54794;48.348;7.878;2022-08-05T15:25:21;34.40;37.20
68011;DHT22;54794;48.348;7.878;2022-08-05T15:28:09;34.40;37.40
68011;DHT22;54794;48.348;7.878;2022-08-05T15:30:40;34.40;37.60
68011;DHT22;54794;48.348;7.878;2022-08-05T15:33:11;34.40;37.60
68011;DHT22;54794;48.348;7.878;2022-08-05T15:35:58;34.40;37.60
68011;DHT22;54794;48.348;7.878;2022-08-05T15:38:29;34.50;37.70
68011;DHT22;54794;48.348;7.878;2022-08-05T15:41:01;34.50;37.70
68011;DHT22;54794;48.348;7.878;2022-08-05T15:43:48;34.60;37.60
68011;DHT22;54794;48.348;7.878;2022-08-05T15:46:18;34.60;37.40
68011;DHT22;54794;48.348;7.878;2022-08-05T15:48:49;34.70;37.40
68011;DHT22;54794;48.348;7.878;2022-08-05T15:51:25;34.70;37.30
68011;DHT22;54794;48.348;7.878;2022-08-05T15:54:13;34.60;37.20
68011;DHT22;54794;48.348;7.878;2022-08-05T15:56:41;34.60;37.20
68011;DHT22;54794;48.348;7.878;2022-08-05T15:59:09;34.50;37.30
68011;DHT22;54794;48.348;7.878;2022-08-05T16:01:48;34.50;37.40
68011;DHT22;54794;48.348;7.878;2022-08-05T16:04:19;34.50;37.40
68011;DHT22;54794;48.348;7.878;2022-08-05T16:06:52;34.40;37.30
68011;DHT22;54794;48.348;7.878;2022-08-05T16:09:21;34.30;37.20
68011;DHT22;54794;48.348;7.878;2022-08-05T16:11:50;34.20;37.20
68011;DHT22;54794;48.348;7.878;2022-08-05T16:14:20;34.10;37.30
68011;DHT22;54794;48.348;7.878;2022-08-05T16:16:48;34.00;37.30
68011;DHT22;54794;48.348;7.878;2022-08-05T16:19:15;33.90;37.40
68011;DHT22;54794;48.348;7.878;2022-08-05T16:22:03;33.70;37.50
68011;DHT22;54794;48.348;7.878;2022-08-05T16:24:32;33.60;37.50
68011;DHT22;54794;48.348;7.878;2022-08-05T16:27:06;33.50;37.70
68011;DHT22;54794;48.348;7.878;2022-08-05T16:29:33;33.30;37.60
68011;DHT22;54794;48.348;7.878;2022-08-05T16:32:04;33.30;37.40
68011;DHT22;54794;48.348;7.878;2022-08-05T16:34:35;33.10;37.60
68011;DHT22;54794;48.348;7.878;2022-08-05T16:37:08;33.00;37.90
68011;DHT22;54794;48.348;7.878;2022-08-05T16:39:55;32.90;38.10
68011;DHT22;54794;48.348;7.878;2022-08-05T16:42:32;32.80;38.10
68011;DHT22;54794;48.348;7.878;2022-08-05T16:45:01;32.70;37.70
68011;DHT22;54794;48.348;7.878;2022-08-05T16:47:47;32.60;37.90
68011;DHT22;54794;48.348;7.878;2022-08-05T16:50:22;32.50;38.20
68011;DHT22;54794;48.348;7.878;2022-08-05T16:52:50;32.40;38.30
68011;DHT22;54794;48.348;7.878;2022-08-05T16:55:18;32.30;38.50
68011;DHT22;54794;48.348;7.878;2022-08-05T16:57:46;32.20;38.50
68011;DHT22;54794;48.348;7.878;2022-08-05T17:00:27;32.10;38.60
68011;DHT22;54794;48.348;7.878;2022-08-05T17:03:01;32.00;38.80
68011;DHT22;54794;48.348;7.878;2022-08-05T17:05:29;31.90;38.90
68011;DHT22;54794;48.348;7.878;2022-08-05T17:07:57;31.80;39.10